createdAt,value
2019-01-20T00:02:26.430Z,72.00
2019-01-20T00:04:57.193Z,72.87
2019-01-20T00:07:28.360Z,74.87
2019-01-20T00:09:59.102Z,71.97
2019-01-20T00:12:30.766Z,74.57
2019-01-20T00:15:02.446Z,72.33
2019-01-20T00:17:33.648Z,75.53
2019-01-20T00:20:10.632Z,75.83
2019-01-20T00:22:42.179Z,78.37
2019-01-20T00:25:13.955Z,78.87
2019-01-20T00:27:44.791Z,76.97
2019-01-20T00:30:16.520Z,74.23
2019-01-20T00:32:47.729Z,74.40
2019-01-20T00:35:19.578Z,66.47
2019-01-20T00:37:50.742Z,78.60
2019-01-20T00:40:21.850Z,76.03
2019-01-20T00:42:53.322Z,81.03
2019-01-20T00:45:24.335Z,78.27
2019-01-20T00:47:55.165Z,76.87
2019-01-20T00:50:26.536Z,75.67
2019-01-20T00:52:58.047Z,72.40
2019-01-20T00:55:29.297Z,73.23
2019-01-20T00:58:00.519Z,73.73
2019-01-20T01:00:33.380Z,78.03
2019-01-20T01:03:04.661Z,70.87
2019-01-20T01:05:36.119Z,74.97
2019-01-20T01:08:07.176Z,67.90
2019-01-20T01:10:38.048Z,71.30
2019-01-20T01:13:10.376Z,66.77
2019-01-20T01:15:41.547Z,69.83
2019-01-20T01:18:12.745Z,72.97
2019-01-20T01:20:44.016Z,71.20
2019-01-20T01:23:15.579Z,73.87
2019-01-20T01:25:47.144Z,69.67
2019-01-20T01:28:18.085Z,72.13
2019-01-20T01:30:49.406Z,75.50
2019-01-20T01:33:20.572Z,72.70
2019-01-20T01:35:51.871Z,75.47
2019-01-20T01:38:23.056Z,71.30
2019-01-20T01:40:54.266Z,77.60
2019-01-20T01:43:25.327Z,73.57
2019-01-20T01:45:56.626Z,76.97
2019-01-20T01:48:27.987Z,75.73
2019-01-20T01:50:59.746Z,72.23
2019-01-20T01:53:30.712Z,73.53
2019-01-20T01:56:02.900Z,75.70
2019-01-20T01:58:34.493Z,75.60
2019-01-20T02:01:07.931Z,78.30
2019-01-20T02:03:39.807Z,71.10
2019-01-20T02:06:11.767Z,77.47
2019-01-20T02:08:42.685Z,77.40
2019-01-20T02:11:14.024Z,70.40
2019-01-20T02:13:46.270Z,69.53
2019-01-20T02:16:18.860Z,66.77
2019-01-20T02:18:50.826Z,68.27
2019-01-20T02:21:23.673Z,65.20
2019-01-20T02:23:54.733Z,61.63
2019-01-20T02:26:26.492Z,58.50
2019-01-20T02:28:57.199Z,66.20
2019-01-20T02:31:28.860Z,60.23
2019-01-20T02:33:59.523Z,57.40
2019-01-20T02:36:30.648Z,62.93
2019-01-20T02:39:02.459Z,60.77
2019-01-20T02:41:34.336Z,62.97
2019-01-20T02:44:06.625Z,59.70
2019-01-20T02:46:38.168Z,60.33
2019-01-20T02:49:09.228Z,58.80
2019-01-20T02:51:44.326Z,52.17
2019-01-20T02:54:15.224Z,64.63
2019-01-20T02:56:46.377Z,51.07
2019-01-20T02:59:18.009Z,53.83
2019-01-20T03:01:53.090Z,62.43
2019-01-20T03:04:25.705Z,61.30
2019-01-20T03:06:56.870Z,54.00
2019-01-20T03:09:27.942Z,54.97
2019-01-20T03:12:03.373Z,43.43
2019-01-20T03:14:32.568Z,50.23
2019-01-20T03:17:03.788Z,53.43
2019-01-20T03:19:37.309Z,56.43
2019-01-20T03:22:08.147Z,56.27
2019-01-20T03:24:39.079Z,54.40
2019-01-20T03:27:09.976Z,57.37
2019-01-20T03:29:41.036Z,56.27
2019-01-20T03:32:12.019Z,55.90
2019-01-20T03:34:43.330Z,56.63
2019-01-20T03:37:14.165Z,56.47
2019-01-20T03:39:45.226Z,50.70
2019-01-20T03:42:16.688Z,58.03
2019-01-20T03:44:48.218Z,50.83
2019-01-20T03:47:18.978Z,49.47
2019-01-20T03:49:50.681Z,51.00
2019-01-20T03:52:21.500Z,50.50
2019-01-20T03:54:52.436Z,49.33
2019-01-20T03:57:23.210Z,53.37
2019-01-20T03:59:54.972Z,54.00
2019-01-20T04:02:26.500Z,52.60
2019-01-20T04:04:57.763Z,49.33
2019-01-20T04:07:29.086Z,46.23
2019-01-20T04:10:00.477Z,54.00
2019-01-20T04:12:31.252Z,49.50
2019-01-20T04:15:02.828Z,51.50
2019-01-20T04:17:33.863Z,53.63
2019-01-20T04:20:05.970Z,59.47
2019-01-20T04:22:37.321Z,55.53
2019-01-20T04:25:10.916Z,53.47
2019-01-20T04:27:41.969Z,56.40
2019-01-20T04:30:15.379Z,53.03
2019-01-20T04:32:46.346Z,47.17
2019-01-20T04:35:19.218Z,47.23
2019-01-20T04:37:50.050Z,56.33
2019-01-20T04:40:23.000Z,55.53
2019-01-20T04:42:53.916Z,57.83
2019-01-20T04:45:25.074Z,57.60
2019-01-20T04:47:55.986Z,56.63
2019-01-20T04:50:27.080Z,52.67
2019-01-20T04:52:58.111Z,53.13
2019-01-20T04:55:28.715Z,51.53
2019-01-20T04:58:00.139Z,52.60
2019-01-20T05:00:31.451Z,50.43
2019-01-20T05:03:03.329Z,51.80
2019-01-20T05:05:34.091Z,51.23
2019-01-20T05:08:05.363Z,52.43
2019-01-20T05:10:36.229Z,56.00
2019-01-20T05:13:07.699Z,59.43
2019-01-20T05:15:39.204Z,57.53
2019-01-20T05:18:10.788Z,65.40
2019-01-20T05:20:42.714Z,63.87
2019-01-20T05:23:13.660Z,61.93
2019-01-20T05:25:44.598Z,59.67
2019-01-20T05:28:15.932Z,54.97
2019-01-20T05:30:47.464Z,65.50
2019-01-20T05:33:19.270Z,63.07
2019-01-20T05:35:50.322Z,61.53
2019-01-20T05:38:21.300Z,63.33
2019-01-20T05:40:52.509Z,64.03
2019-01-20T05:43:23.916Z,60.47
2019-01-20T05:45:55.326Z,59.00
2019-01-20T05:48:26.083Z,63.70
2019-01-20T05:50:57.625Z,59.47
2019-01-20T05:53:28.539Z,65.40
2019-01-20T05:55:59.623Z,58.87
2019-01-20T05:58:31.327Z,63.17
2019-01-20T06:01:02.707Z,64.10
2019-01-20T06:03:33.940Z,68.57
2019-01-20T06:06:05.908Z,65.33
2019-01-20T06:08:36.848Z,70.53
2019-01-20T06:11:09.577Z,72.57
2019-01-20T06:13:40.669Z,67.43
2019-01-20T06:16:11.940Z,78.60
2019-01-20T06:18:44.338Z,76.63
2019-01-20T06:21:15.901Z,79.47
2019-01-20T06:23:48.891Z,79.60
2019-01-20T06:26:19.244Z,78.47
2019-01-20T06:28:49.974Z,79.23
2019-01-20T06:31:20.733Z,88.40
2019-01-20T06:33:52.182Z,90.57
2019-01-20T06:36:23.416Z,92.53
2019-01-20T06:38:54.411Z,87.80
2019-01-20T06:41:25.844Z,86.23
2019-01-20T06:43:57.115Z,93.37
2019-01-20T06:46:28.574Z,94.97
2019-01-20T06:48:59.493Z,92.50
2019-01-20T06:51:31.356Z,100.40
2019-01-20T06:54:02.629Z,104.93
2019-01-20T06:56:34.217Z,95.87
2019-01-20T06:59:05.524Z,95.10
2019-01-20T07:01:37.463Z,96.03
2019-01-20T07:04:09.176Z,98.23
2019-01-20T07:06:40.216Z,88.47
2019-01-20T07:09:11.952Z,98.97
2019-01-20T07:11:43.393Z,97.13
2019-01-20T07:14:14.867Z,89.57
2019-01-20T07:16:45.820Z,98.20
2019-01-20T07:19:22.148Z,82.10
2019-01-20T07:21:53.346Z,72.83
2019-01-20T07:24:25.994Z,69.17
2019-01-20T07:26:57.078Z,68.40
2019-01-20T07:29:29.700Z,72.57
2019-01-20T07:32:00.577Z,75.37
2019-01-20T07:34:32.232Z,71.03
2019-01-20T07:37:02.781Z,72.30
2019-01-20T07:39:34.803Z,72.40
2019-01-20T07:42:06.203Z,76.50
2019-01-20T07:44:37.157Z,77.87
2019-01-20T07:47:08.185Z,72.47
2019-01-20T07:49:38.901Z,74.77
2019-01-20T07:52:10.537Z,72.70
2019-01-20T07:54:41.559Z,75.20
2019-01-20T07:57:14.386Z,74.10
2019-01-20T07:59:45.366Z,75.37
2019-01-20T08:02:16.121Z,69.67
2019-01-20T08:04:47.328Z,69.70
2019-01-20T08:07:18.811Z,70.17
2019-01-20T08:09:54.085Z,73.77
2019-01-20T08:12:24.924Z,75.60
2019-01-20T08:14:56.354Z,77.17
2019-01-20T08:17:27.545Z,74.37
2019-01-20T08:19:58.729Z,71.10
2019-01-20T08:22:30.087Z,71.30
2019-01-20T08:25:01.207Z,76.73
2019-01-20T08:27:32.415Z,71.80
2019-01-20T08:30:02.937Z,67.40
2019-01-20T08:32:33.912Z,61.20
2019-01-20T08:35:05.776Z,65.20
2019-01-20T08:37:36.975Z,63.40
2019-01-20T08:40:11.204Z,68.97
2019-01-20T08:42:42.418Z,60.40
2019-01-20T08:45:18.452Z,65.17
2019-01-20T08:47:53.801Z,64.07
2019-01-20T08:50:25.385Z,67.33
2019-01-20T08:52:57.277Z,70.37
2019-01-20T08:55:31.619Z,69.23
2019-01-20T08:58:02.605Z,75.17
2019-01-20T09:00:34.045Z,70.13
2019-01-20T09:03:05.168Z,68.07
2019-01-20T09:05:36.054Z,68.07
2019-01-20T09:08:07.321Z,65.90
2019-01-20T09:10:38.648Z,64.43
2019-01-20T09:13:10.378Z,65.23
2019-01-20T09:15:41.023Z,68.57
2019-01-20T09:18:12.059Z,63.43
2019-01-20T09:20:42.705Z,61.23
2019-01-20T09:23:13.559Z,64.77
2019-01-20T09:25:44.041Z,59.93
2019-01-20T09:28:15.442Z,61.60
2019-01-20T09:30:46.842Z,66.33
2019-01-20T09:33:24.544Z,64.47
2019-01-20T09:35:50.779Z,65.33
2019-01-20T09:38:22.222Z,61.73
2019-01-20T09:40:52.658Z,61.10
2019-01-20T09:43:23.749Z,64.63
2019-01-20T09:45:56.361Z,67.67
2019-01-20T09:48:27.919Z,62.23
2019-01-20T09:50:59.035Z,59.77
2019-01-20T09:53:30.484Z,58.77
2019-01-20T09:56:01.348Z,62.23
2019-01-20T09:58:32.086Z,61.87
2019-01-20T10:01:04.031Z,59.70
2019-01-20T10:03:35.179Z,57.80
2019-01-20T10:06:06.086Z,59.80
2019-01-20T10:08:38.104Z,59.93
2019-01-20T10:11:09.391Z,59.07
2019-01-20T10:13:40.452Z,60.23
2019-01-20T10:16:14.119Z,62.67
2019-01-20T10:18:45.186Z,60.07
2019-01-20T10:21:15.997Z,57.67
2019-01-20T10:23:47.519Z,63.90
2019-01-20T10:26:18.331Z,56.70
2019-01-20T10:28:49.153Z,54.80
2019-01-20T10:31:19.914Z,55.87
2019-01-20T10:33:51.174Z,58.47
2019-01-20T10:36:22.059Z,55.63
2019-01-20T10:38:52.962Z,53.77
2019-01-20T10:41:23.661Z,54.33
2019-01-20T10:43:54.334Z,58.70
2019-01-20T10:46:25.186Z,57.10
2019-01-20T10:48:57.350Z,56.87
2019-01-20T10:51:28.706Z,59.87
2019-01-20T10:53:59.816Z,58.70
2019-01-20T10:56:30.837Z,56.77
2019-01-20T10:59:01.825Z,53.83
2019-01-20T11:01:33.031Z,49.90
2019-01-20T11:04:04.303Z,45.00
2019-01-20T11:06:35.375Z,49.50
2019-01-20T11:09:07.768Z,46.27
2019-01-20T11:11:38.719Z,46.37
2019-01-20T11:14:10.477Z,43.37
2019-01-20T11:16:41.795Z,37.80
2019-01-20T11:19:12.432Z,38.30
2019-01-20T11:21:43.370Z,38.67
2019-01-20T11:24:14.802Z,40.00
2019-01-20T11:26:45.881Z,39.80
2019-01-20T11:29:16.484Z,40.93
2019-01-20T11:31:47.613Z,40.57
2019-01-20T11:34:19.289Z,37.40
2019-01-20T11:36:50.207Z,40.57
2019-01-20T11:39:21.354Z,38.30
2019-01-20T11:41:52.156Z,37.73
2019-01-20T11:44:23.232Z,41.60
2019-01-20T11:46:53.955Z,36.40
2019-01-20T11:49:24.865Z,37.70
2019-01-20T11:51:55.817Z,37.23
2019-01-20T11:54:27.897Z,37.47
2019-01-20T11:56:59.197Z,36.47
2019-01-20T11:59:30.250Z,36.47
2019-01-20T12:02:01.400Z,37.17
2019-01-20T12:04:32.196Z,36.90
2019-01-20T12:07:03.228Z,35.50
2019-01-20T12:09:34.358Z,34.63
2019-01-20T12:12:07.321Z,34.63
2019-01-20T12:14:38.890Z,31.90
2019-01-20T12:17:09.555Z,30.57
2019-01-20T12:19:41.178Z,32.60
2019-01-20T12:22:13.112Z,33.77
2019-01-20T12:24:43.531Z,32.73
2019-01-20T12:27:14.989Z,31.93
2019-01-20T12:29:51.831Z,32.00
2019-01-20T12:32:18.845Z,33.60
2019-01-20T12:34:50.944Z,29.20
2019-01-20T12:37:21.731Z,27.03
2019-01-20T12:39:52.463Z,25.70
2019-01-20T12:42:25.235Z,24.87
2019-01-20T12:44:56.592Z,24.67
2019-01-20T12:47:27.434Z,30.00
2019-01-20T12:49:58.150Z,28.97
2019-01-20T12:52:28.833Z,29.93
2019-01-20T12:54:59.572Z,31.30
2019-01-20T12:57:30.540Z,30.27
2019-01-20T13:00:01.081Z,28.10
2019-01-20T13:02:32.312Z,31.63
2019-01-20T13:05:03.671Z,30.80
2019-01-20T13:07:34.078Z,31.73
2019-01-20T13:10:05.976Z,32.73
2019-01-20T13:12:36.514Z,32.83
2019-01-20T13:15:09.274Z,33.43
2019-01-20T13:17:40.307Z,37.60
2019-01-20T13:20:14.867Z,33.00
2019-01-20T13:22:45.747Z,31.57
2019-01-20T13:25:20.580Z,29.47
2019-01-20T13:27:51.144Z,31.33
2019-01-20T13:30:23.979Z,32.63
2019-01-20T13:32:54.907Z,33.33
2019-01-20T13:35:26.697Z,32.37
2019-01-20T13:38:03.472Z,31.77
2019-01-20T13:40:40.745Z,29.30
2019-01-20T13:43:14.939Z,33.00
2019-01-20T13:45:46.047Z,35.20
2019-01-20T13:48:17.164Z,34.30
2019-01-20T13:50:47.833Z,35.50
2019-01-20T13:53:19.116Z,34.10
2019-01-20T13:55:51.629Z,39.87
2019-01-20T13:58:22.965Z,37.67
2019-01-20T14:00:53.683Z,38.43
2019-01-20T14:03:24.927Z,40.93
2019-01-20T14:05:55.757Z,40.60
2019-01-20T14:08:27.032Z,40.30
2019-01-20T14:10:57.640Z,40.10
2019-01-20T14:13:28.563Z,39.63
2019-01-20T14:15:59.629Z,38.43
2019-01-20T14:18:30.518Z,38.80
2019-01-20T14:21:01.994Z,39.90
2019-01-20T14:23:34.198Z,37.33
2019-01-20T14:26:06.039Z,35.87
2019-01-20T14:28:36.245Z,37.30
2019-01-20T14:31:07.152Z,37.90
2019-01-20T14:33:37.872Z,39.00
2019-01-20T14:36:09.150Z,38.10
2019-01-20T14:38:40.463Z,36.13
2019-01-20T14:41:12.099Z,38.00
2019-01-20T14:43:43.263Z,37.43
2019-01-20T14:46:14.381Z,40.00
2019-01-20T14:48:45.548Z,39.90
2019-01-20T14:51:16.601Z,39.33
2019-01-20T14:53:47.716Z,37.83
2019-01-20T14:56:19.711Z,39.20
2019-01-20T14:58:51.401Z,40.63
2019-01-20T15:01:23.463Z,38.50
2019-01-20T15:03:53.832Z,38.07
2019-01-20T15:06:25.436Z,38.97
2019-01-20T15:08:56.389Z,39.33
2019-01-20T15:11:28.700Z,39.47
2019-01-20T15:14:00.365Z,38.93
2019-01-20T15:16:31.269Z,39.87
2019-01-20T15:19:02.314Z,41.33
2019-01-20T15:21:33.590Z,46.03
2019-01-20T15:24:05.092Z,41.07
2019-01-20T15:26:36.029Z,42.27
2019-01-20T15:29:33.160Z,41.80
2019-01-20T15:32:16.311Z,44.17
2019-01-20T15:35:03.485Z,45.67
2019-01-20T15:37:52.057Z,44.37
2019-01-20T15:40:37.716Z,45.77
2019-01-20T15:43:43.031Z,47.83
2019-01-20T15:46:38.622Z,45.93
2019-01-20T15:49:19.563Z,46.07
2019-01-20T15:52:05.189Z,45.67
2019-01-20T15:54:52.844Z,43.07
2019-01-20T15:57:25.918Z,40.27
2019-01-20T16:00:13.500Z,37.73
2019-01-20T16:03:07.667Z,42.30
2019-01-20T16:06:09.606Z,41.30
2019-01-20T16:08:50.040Z,40.20
2019-01-20T16:11:21.129Z,43.13
2019-01-20T16:14:11.141Z,38.33
2019-01-20T16:17:05.418Z,34.20
2019-01-20T16:19:41.389Z,36.90
2019-01-20T16:22:22.369Z,34.63
2019-01-20T16:25:01.119Z,64.37
2019-01-20T16:27:41.012Z,36.30
2019-01-20T16:30:34.886Z,33.80
2019-01-20T16:33:14.946Z,35.80
2019-01-20T16:36:09.393Z,33.83
2019-01-20T16:38:58.506Z,33.90
2019-01-20T16:41:51.602Z,35.40
2019-01-20T16:44:46.844Z,34.90
2019-01-20T16:47:26.618Z,34.80
2019-01-20T16:50:04.413Z,33.43
2019-01-20T16:52:39.884Z,33.90
2019-01-20T16:55:16.742Z,32.73
2019-01-20T16:57:48.666Z,34.17
2019-01-20T17:00:46.348Z,33.87
2019-01-20T17:03:20.006Z,36.03
2019-01-20T17:06:02.882Z,36.50
2019-01-20T17:08:46.276Z,35.70
2019-01-20T17:11:18.858Z,34.60
2019-01-20T17:14:04.891Z,34.23
2019-01-20T17:17:01.199Z,35.10
2019-01-20T17:19:47.426Z,35.60
2019-01-20T17:22:31.630Z,34.53
2019-01-20T17:25:20.660Z,34.30
2019-01-20T17:28:14.164Z,33.33
2019-01-20T17:30:52.571Z,33.63
2019-01-20T17:33:36.481Z,32.80
2019-01-20T17:36:19.371Z,34.53
2019-01-20T17:39:00.698Z,34.97
2019-01-20T17:41:49.799Z,36.70
2019-01-20T17:44:31.844Z,35.30
2019-01-20T17:47:13.537Z,34.97
2019-01-20T17:49:47.378Z,34.43
2019-01-20T17:52:26.946Z,32.33
2019-01-20T17:55:15.468Z,33.90
2019-01-20T17:57:50.628Z,34.80
2019-01-20T18:00:42.875Z,33.17
2019-01-20T18:03:29.358Z,33.47
2019-01-20T18:06:12.586Z,38.50
2019-01-20T18:09:03.227Z,36.17
2019-01-20T18:11:48.430Z,38.13
2019-01-20T18:14:34.230Z,37.13
2019-01-20T18:17:22.629Z,35.10
2019-01-20T18:20:13.298Z,33.83
2019-01-20T18:23:05.473Z,33.77
2019-01-20T18:25:41.771Z,34.73
2019-01-20T18:28:14.476Z,36.83
2019-01-20T18:30:54.809Z,36.60
2019-01-20T18:33:36.949Z,35.83
2019-01-20T18:36:19.487Z,55.77
2019-01-20T18:38:50.013Z,35.97
2019-01-20T18:41:28.951Z,36.90
2019-01-20T18:44:13.220Z,37.90
2019-01-20T18:46:50.133Z,36.10
2019-01-20T18:49:26.008Z,38.37
2019-01-20T18:51:56.685Z,38.77
2019-01-20T18:54:29.351Z,37.13
2019-01-20T18:57:00.367Z,37.50
2019-01-20T18:59:53.416Z,38.87
2019-01-20T19:02:45.915Z,41.27
2019-01-20T19:05:30.606Z,44.53
2019-01-20T19:08:08.825Z,43.50
2019-01-20T19:11:15.711Z,38.77
2019-01-20T19:13:53.071Z,41.50
2019-01-20T19:16:28.417Z,44.40
2019-01-20T19:18:59.674Z,42.30
2019-01-20T19:21:42.047Z,45.30
2019-01-20T19:24:14.425Z,45.30
2019-01-20T19:26:52.382Z,46.50
2019-01-20T19:29:45.179Z,46.33
2019-01-20T19:32:25.956Z,50.17
2019-01-20T19:35:00.438Z,46.20
2019-01-20T19:37:39.308Z,49.97
2019-01-20T19:40:19.348Z,50.77
2019-01-20T19:42:55.053Z,51.40
2019-01-20T19:45:31.285Z,53.57
2019-01-20T19:48:24.465Z,57.93
2019-01-20T19:51:15.200Z,57.57
2019-01-20T19:53:58.534Z,53.50
2019-01-20T19:56:48.283Z,55.00
2019-01-20T19:59:35.718Z,58.97
2019-01-20T20:02:12.678Z,62.43
2019-01-20T20:04:52.281Z,57.63
2019-01-20T20:07:27.792Z,56.80
2019-01-20T20:10:14.640Z,61.30
2019-01-20T20:12:48.805Z,62.70
2019-01-20T20:15:30.351Z,61.37
2019-01-20T20:18:09.871Z,65.90
2019-01-20T20:20:52.995Z,66.27
2019-01-20T20:23:50.286Z,67.77
2019-01-20T20:26:24.194Z,70.23
2019-01-20T20:29:19.482Z,70.63
2019-01-20T20:32:15.870Z,65.37
2019-01-20T20:35:10.087Z,68.13
2019-01-20T20:38:12.807Z,149.73
2019-01-20T20:41:16.191Z,98.53
2019-01-20T20:43:55.319Z,69.70
2019-01-20T20:46:44.782Z,63.27
2019-01-20T20:49:44.618Z,57.40
2019-01-20T20:52:19.706Z,59.83
2019-01-20T20:54:51.211Z,62.93
2019-01-20T20:57:25.558Z,58.60
2019-01-20T20:59:58.948Z,61.10
2019-01-20T21:02:31.098Z,59.70
2019-01-20T21:05:06.576Z,57.33
2019-01-20T21:07:37.392Z,60.17
2019-01-20T21:10:16.782Z,64.17
2019-01-20T21:12:57.321Z,59.70
2019-01-20T21:15:32.912Z,65.93
2019-01-20T21:18:29.775Z,64.80
2019-01-20T21:21:04.047Z,62.57
2019-01-20T21:23:35.402Z,60.77
2019-01-20T21:26:07.183Z,61.77
2019-01-20T21:28:38.213Z,59.90
2019-01-20T21:31:16.142Z,60.57
2019-01-20T21:33:52.192Z,59.97
2019-01-20T21:36:23.745Z,61.20
2019-01-20T21:39:26.596Z,64.25
2019-01-20T21:41:58.888Z,63.43
2019-01-20T21:44:38.287Z,63.57
2019-01-20T21:47:21.546Z,59.93
2019-01-20T21:49:58.598Z,58.83
2019-01-20T21:52:35.151Z,58.17
2019-01-20T21:55:06.575Z,60.67
2019-01-20T21:57:37.712Z,62.47
2019-01-20T22:00:12.468Z,61.02
2019-01-20T22:02:45.603Z,59.60
2019-01-20T22:05:16.267Z,59.40
2019-01-20T22:07:56.186Z,65.17
2019-01-20T22:10:31.061Z,63.37
2019-01-20T22:13:18.184Z,57.23
2019-01-20T22:15:51.836Z,58.00
2019-01-20T22:18:36.742Z,58.63
2019-01-20T22:21:07.352Z,62.67
2019-01-20T22:23:53.222Z,58.67
2019-01-20T22:26:26.476Z,55.17
2019-01-20T22:29:16.855Z,56.00
2019-01-20T22:31:48.834Z,55.93
2019-01-20T22:34:26.926Z,59.53
2019-01-20T22:36:58.471Z,61.77
2019-01-20T22:39:33.167Z,57.57
2019-01-20T22:42:03.708Z,58.27
2019-01-20T22:44:34.122Z,59.63
2019-01-20T22:47:10.063Z,57.17
2019-01-20T22:49:41.806Z,57.87
2019-01-20T22:52:12.973Z,60.80
2019-01-20T22:54:44.251Z,58.87
2019-01-20T22:57:16.690Z,61.10
2019-01-20T22:59:47.500Z,62.83
2019-01-20T23:02:19.430Z,58.70
2019-01-20T23:04:50.338Z,64.27
2019-01-20T23:07:21.344Z,59.93
2019-01-20T23:09:51.859Z,64.60
2019-01-20T23:12:23.029Z,59.93
2019-01-20T23:14:53.951Z,63.00
2019-01-20T23:17:25.373Z,59.47
2019-01-20T23:19:56.224Z,67.17
2019-01-20T23:22:27.535Z,68.00
2019-01-20T23:24:58.227Z,64.53
2019-01-20T23:27:29.673Z,65.20
2019-01-20T23:30:00.926Z,62.83
2019-01-20T23:32:35.471Z,74.73
2019-01-20T23:35:07.292Z,69.00
2019-01-20T23:37:38.732Z,66.30
2019-01-20T23:40:10.382Z,66.17
2019-01-20T23:42:41.426Z,63.73
2019-01-20T23:45:13.192Z,67.30
2019-01-20T23:47:44.329Z,69.30
2019-01-20T23:50:16.029Z,65.00
2019-01-20T23:52:46.403Z,61.83
2019-01-20T23:55:17.203Z,63.23
2019-01-20T23:57:47.872Z,65.53
